This is the latest recevied weather packets stored in our database for station/object K6CED. If no packets are shown the sender has not sent any weather packets the latest 10 day(s).
| Time | Temp. | Humidity | Pressure | Rain* | Wind** | Luminosity | Snow |
|---|---|---|---|---|---|---|---|
| 1787936357 | 33.33° C | 43% | 1016 hPa | 0 mm | - | 606 W/m² | - |
| 1787936052 | 32.78° C | 44% | 1016 hPa | 0 mm | - | 579 W/m² | - |
| 1787935747 | 32.78° C | 44% | 1015.8 hPa | 0 mm | - | 570 W/m² | - |
| 1787935444 | 32.78° C | 46% | 1015.8 hPa | 0 mm | - | 560 W/m² | - |
| 1787935139 | 32.78° C | 45% | 1015.8 hPa | 0 mm | - | 547 W/m² | - |
| 1787934834 | 31.67° C | 48% | 1015.9 hPa | 0 mm | - | 537 W/m² | - |
| 1787934533 | 31.11° C | 50% | 1015.9 hPa | 0 mm | - | 533 W/m² | - |
| 1787934228 | 31.11° C | 51% | 1015.9 hPa | 0 mm | - | 516 W/m² | - |
| 1787933927 | 31.11° C | 51% | 1015.8 hPa | 0 mm | - | 494 W/m² | - |
| 1787933626 | 30.56° C | 52% | 1015.9 hPa | 0 mm | - | 478 W/m² | - |
| 1787933321 | 30° C | 55% | 1015.7 hPa | 0 mm | - | 457 W/m² | - |
| 1787933016 | 29.44° C | 56% | 1015.8 hPa | 0 mm | - | 351 W/m² | - |
| 1787932715 | 29.44° C | 57% | 1015.9 hPa | 0 mm | - | 417 W/m² | - |
| 1787932409 | 28.89° C | 58% | 1015.6 hPa | 0 mm | - | 402 W/m² | - |
| 1787932104 | 28.33° C | 60% | 1015.7 hPa | 0 mm | - | 382 W/m² | - |
| 1787931803 | 28.33° C | 60% | 1015.7 hPa | 0 mm | - | 369 W/m² | - |
| 1787931502 | 28.33° C | 59% | 1015.9 hPa | 0 mm | - | 354 W/m² | - |
| 1787931197 | 27.78° C | 61% | 1015.8 hPa | 0 mm | - | 332 W/m² | - |
| 1787930897 | 27.78° C | 61% | 1015.9 hPa | 0 mm | - | 309 W/m² | - |
| 1787930596 | 27.78° C | 61% | 1015.8 hPa | 0 mm | - | 293 W/m² | - |
| 1787930292 | 28.33° C | 60% | 1015.8 hPa | 0 mm | - | 255 W/m² | - |
| 1787929991 | 27.22° C | 62% | 1015.8 hPa | 0 mm | - | 246 W/m² | - |
| 1787929690 | 27.78° C | 60% | 1015.9 hPa | 0 mm | - | 149 W/m² | - |
| 1787929385 | 27.78° C | 60% | 1015.7 hPa | 0 mm | - | 213 W/m² | - |
| 1787929083 | 27.78° C | 61% | 1015.8 hPa | 0 mm | - | 200 W/m² | - |
* Rain latest hour (hover to see other rain measurements)
** Current wind speed in m/s (hover to see current wind gust speed)